Time;durP1;ratioP1;P1;durP2;ratioP2;P2;SDS_P1;SDS_P2;PMS_P1;PMS_P2;Temp;Humidity;BMP_temperature;BMP_pressure;BME280_temperature;BME280_humidity;BME280_pressure;Samples;Min_cycle;Max_cycle;Signal;HPM_P1;HPM_P2
2022/04/22 00:02:00;;;;;;;41.72;26.92;;;11.60;99.90;;;;;;5076674;28;20496;-80
2022/04/22 00:04:27;;;;;;;32.13;21.73;;;11.60;99.90;;;;;;5078373;28;20033;-79
2022/04/22 00:06:55;;;;;;;35.88;23.90;;;11.50;99.90;;;;;;5079192;28;20029;-79
2022/04/22 00:09:22;;;;;;;35.63;23.25;;;11.50;99.90;;;;;;5075971;28;20048;-81
2022/04/22 00:11:50;;;;;;;39.30;25.10;;;11.50;99.90;;;;;;5066301;28;20048;-79
2022/04/22 00:14:18;;;;;;;42.65;25.20;;;11.50;99.90;;;;;;5048969;28;20049;-79
2022/04/22 00:16:46;;;;;;;37.10;22.83;;;11.40;99.90;;;;;;5038782;28;20417;-80
2022/04/22 00:19:14;;;;;;;36.20;22.15;;;11.40;99.90;;;;;;5040930;28;20045;-80
2022/04/22 00:21:43;;;;;;;33.05;20.77;;;11.40;99.90;;;;;;5070735;28;20045;-79
2022/04/22 00:24:10;;;;;;;34.78;21.95;;;11.40;99.90;;;;;;5065072;28;20047;-81
2022/04/22 00:26:37;;;;;;;35.95;21.98;;;11.30;99.90;;;;;;5059079;28;20095;-80
2022/04/22 00:29:05;;;;;;;37.75;25.45;;;11.40;99.90;;;;;;5050788;28;20050;-80
2022/04/22 00:31:32;;;;;;;41.33;27.17;;;11.30;99.90;;;;;;5021976;28;20045;-79
2022/04/22 00:33:59;;;;;;;37.15;23.95;;;11.30;99.90;;;;;;5016982;28;20050;-80
2022/04/22 00:36:28;;;;;;;38.08;23.92;;;11.20;99.90;;;;;;5018747;28;20081;-80
2022/04/22 00:38:56;;;;;;;36.50;22.58;;;11.20;99.90;;;;;;5019813;28;20513;-80
2022/04/22 00:41:23;;;;;;;39.58;24.42;;;11.10;99.90;;;;;;5019781;28;20053;-81
2022/04/22 00:43:53;;;;;;;42.10;23.35;;;11.10;99.90;;;;;;5053573;28;20128;-81
2022/04/22 00:46:20;;;;;;;36.72;22.40;;;11.10;99.90;;;;;;5080662;28;20036;-81
2022/04/22 00:48:48;;;;;;;41.75;25.33;;;11.00;99.90;;;;;;5083246;28;20036;-81
2022/04/22 00:51:16;;;;;;;42.15;25.30;;;11.00;99.90;;;;;;5081027;28;20365;-80
2022/04/22 00:53:47;;;;;;;38.85;22.95;;;11.10;99.90;;;;;;5080380;28;20056;-80
2022/04/22 00:56:15;;;;;;;35.72;21.08;;;11.00;99.90;;;;;;5079986;28;20484;-80
2022/04/22 00:58:43;;;;;;;27.17;17.27;;;11.10;99.90;;;;;;5099705;28;20036;-82
2022/04/22 01:01:11;;;;;;;26.05;16.00;;;11.10;99.90;;;;;;5099054;28;20089;-81
2022/04/22 01:03:39;;;;;;;31.65;17.65;;;11.10;99.90;;;;;;5079601;28;20165;-80
2022/04/22 01:11:40;;;;;;;30.20;16.40;;;11.00;99.90;;;;;;5080305;28;20048;-81
2022/04/22 01:14:09;;;;;;;29.70;17.48;;;11.10;99.90;;;;;;5080280;28;20045;-80
2022/04/22 01:16:36;;;;;;;25.10;15.52;;;11.20;99.90;;;;;;5082888;28;20051;-81
2022/04/22 01:19:03;;;;;;;25.80;15.57;;;11.20;99.90;;;;;;5081132;28;20052;-79
2022/04/22 01:21:32;;;;;;;26.85;16.08;;;11.20;99.90;;;;;;5084347;28;20040;-82
2022/04/22 01:24:00;;;;;;;25.65;15.98;;;11.10;99.90;;;;;;5087514;28;20045;-80
2022/04/22 01:26:27;;;;;;;24.20;15.55;;;11.00;99.90;;;;;;5105712;28;20054;-81
2022/04/22 01:28:56;;;;;;;31.92;22.23;;;11.10;99.90;;;;;;5108534;28;20044;-79
2022/04/22 01:31:23;;;;;;;31.02;20.65;;;11.00;99.90;;;;;;5102104;28;20127;-79
2022/04/22 01:33:51;;;;;;;30.40;16.25;;;11.00;99.90;;;;;;5095534;28;20139;-81
2022/04/22 01:36:18;;;;;;;21.80;11.95;;;10.90;99.90;;;;;;5107306;28;20085;-79
2022/04/22 01:38:47;;;;;;;21.65;11.02;;;10.90;99.90;;;;;;5107251;28;20075;-79
2022/04/22 01:41:14;;;;;;;16.38;8.93;;;10.90;99.90;;;;;;5110675;28;20075;-80
2022/04/22 01:43:42;;;;;;;16.63;8.18;;;11.00;99.90;;;;;;5107967;28;20056;-79
2022/04/22 01:46:09;;;;;;;14.90;6.47;;;11.10;99.90;;;;;;5094520;28;20135;-79
2022/04/22 01:48:37;;;;;;;11.07;6.95;;;11.20;99.90;;;;;;5093009;28;20487;-78
2022/04/22 01:51:04;;;;;;;16.02;8.70;;;11.30;99.90;;;;;;5077581;28;20123;-82
2022/04/22 01:53:32;;;;;;;16.67;7.78;;;11.30;99.90;;;;;;5073712;28;20044;-81
2022/04/22 01:56:01;;;;;;;12.38;7.05;;;11.30;99.90;;;;;;5111101;28;20051;-81
2022/04/22 01:58:28;;;;;;;12.82;6.93;;;11.30;99.90;;;;;;5085690;28;20094;-80
2022/04/22 02:00:56;;;;;;;12.55;6.80;;;11.40;99.90;;;;;;5074008;28;20076;-80
2022/04/22 02:03:23;;;;;;;15.20;6.93;;;11.40;99.90;;;;;;5077448;28;20067;-80
2022/04/22 02:05:51;;;;;;;12.95;6.90;;;11.40;99.90;;;;;;5076608;28;20492;-80
2022/04/22 02:08:20;;;;;;;14.95;6.78;;;11.40;99.90;;;;;;5077736;28;20082;-80
2022/04/22 02:10:47;;;;;;;13.02;6.97;;;11.50;99.90;;;;;;5075052;28;20040;-80
2022/04/22 02:13:16;;;;;;;14.80;6.95;;;11.60;99.90;;;;;;5076296;28;20551;-79
2022/04/22 02:15:43;;;;;;;17.63;7.15;;;11.60;99.90;;;;;;5076269;28;20508;-79
2022/04/22 02:18:11;;;;;;;15.05;6.65;;;11.70;99.90;;;;;;5074431;28;20435;-80
2022/04/22 02:20:38;;;;;;;13.27;6.30;;;11.70;99.90;;;;;;5073619;28;20492;-80
2022/04/22 02:23:06;;;;;;;16.70;7.53;;;11.70;99.90;;;;;;5072349;28;20045;-80
2022/04/22 02:25:33;;;;;;;14.52;7.45;;;11.70;99.90;;;;;;5073728;28;20480;-78
2022/04/22 02:30:47;;;;;;;17.95;7.57;;;11.80;99.90;;;;;;5073259;28;20402;-80
2022/04/22 02:33:15;;;;;;;15.93;6.25;;;11.90;99.90;;;;;;5071637;28;20139;-80
2022/04/22 02:35:42;;;;;;;12.20;6.53;;;11.80;99.90;;;;;;5073501;28;20135;-80
2022/04/22 02:38:10;;;;;;;14.50;6.60;;;11.70;99.90;;;;;;5083766;28;20060;-80
2022/04/22 02:46:08;;;;;;;16.40;6.88;;;11.60;99.90;;;;;;5074559;28;20043;-81
2022/04/22 02:48:36;;;;;;;25.65;10.10;;;11.60;99.90;;;;;;5072681;28;20131;-81
2022/04/22 02:51:03;;;;;;;19.83;9.80;;;11.70;99.90;;;;;;5078087;28;20105;-80
2022/04/22 02:53:31;;;;;;;19.38;8.30;;;11.70;99.90;;;;;;5069492;28;20082;-80
2022/04/22 02:55:58;;;;;;;17.40;8.23;;;11.70;99.90;;;;;;5080458;28;20112;-81
2022/04/22 02:58:26;;;;;;;14.13;8.05;;;11.70;99.90;;;;;;5087050;28;20031;-80
2022/04/22 03:00:53;;;;;;;14.35;8.70;;;11.70;99.90;;;;;;5095468;28;20046;-81
2022/04/22 03:03:23;;;;;;;15.60;7.68;;;11.70;99.90;;;;;;5095044;28;20414;-82
2022/04/22 03:05:51;;;;;;;16.80;8.80;;;11.70;99.90;;;;;;5098440;28;20059;-79
2022/04/22 03:08:19;;;;;;;14.23;8.63;;;11.80;99.90;;;;;;5094081;28;20043;-79
2022/04/22 03:10:48;;;;;;;13.38;8.73;;;11.80;99.90;;;;;;5093085;28;20051;-79
2022/04/22 03:13:16;;;;;;;19.85;9.15;;;11.80;99.90;;;;;;5074007;28;20048;-79
2022/04/22 03:15:44;;;;;;;17.48;9.07;;;11.80;99.90;;;;;;5073855;28;20045;-79
2022/04/22 03:18:12;;;;;;;17.17;8.52;;;11.80;99.90;;;;;;5074227;28;20036;-80
2022/04/22 03:20:41;;;;;;;19.20;8.82;;;11.80;99.90;;;;;;5072651;28;20055;-79
2022/04/22 03:23:08;;;;;;;22.67;11.23;;;11.80;99.90;;;;;;5072731;28;20049;-80
2022/04/22 03:25:35;;;;;;;17.27;10.07;;;11.80;99.90;;;;;;5084420;28;20040;-79
2022/04/22 03:28:06;;;;;;;24.00;11.00;;;11.80;99.90;;;;;;5098642;28;20474;-80
2022/04/22 03:30:34;;;;;;;18.38;10.80;;;11.70;99.90;;;;;;5090594;28;20052;-79
2022/04/22 03:33:02;;;;;;;19.73;9.70;;;11.70;99.90;;;;;;5077430;28;20135;-79
2022/04/22 03:35:29;;;;;;;15.85;8.20;;;11.70;99.90;;;;;;5076374;28;20044;-78
2022/04/22 03:37:58;;;;;;;13.40;7.30;;;11.60;99.90;;;;;;5077199;28;20041;-79
2022/04/22 03:40:26;;;;;;;45.80;27.10;;;11.60;99.90;;;;;;5083479;28;20044;-81
2022/04/22 03:42:54;;;;;;;17.13;10.32;;;11.50;99.90;;;;;;5096900;28;20503;-81
2022/04/22 03:45:22;;;;;;;28.98;18.88;;;11.50;99.90;;;;;;5095244;28;20040;-80
2022/04/22 03:47:50;;;;;;;28.25;19.05;;;11.50;99.90;;;;;;5077429;28;20492;-80
2022/04/22 03:50:17;;;;;;;24.35;15.63;;;11.50;99.90;;;;;;5075834;28;20044;-80
2022/04/22 03:52:45;;;;;;;23.77;11.02;;;11.40;99.90;;;;;;5075562;28;20051;-79
2022/04/22 03:55:15;;;;;;;19.10;9.48;;;11.50;99.90;;;;;;5091243;28;20527;-79
2022/04/22 04:00:28;;;;;;;17.77;10.37;;;11.30;99.90;;;;;;5076503;28;20040;-79
2022/04/22 04:02:55;;;;;;;25.77;11.32;;;11.20;99.90;;;;;;5076585;28;20044;-79
2022/04/22 04:05:23;;;;;;;22.67;11.10;;;11.10;99.90;;;;;;5076470;28;20080;-80
2022/04/22 04:07:50;;;;;;;26.42;13.98;;;11.10;99.90;;;;;;5082918;28;20417;-79
2022/04/22 04:16:01;;;;;;;15.93;9.30;;;11.00;99.90;;;;;;5095152;28;19916;-79
2022/04/22 04:18:30;;;;;;;18.80;9.10;;;10.90;99.90;;;;;;5095679;28;20126;-79
2022/04/22 04:23:42;;;;;;;22.50;10.93;;;10.90;99.90;;;;;;5096902;28;20044;-79
2022/04/22 04:26:12;;;;;;;21.58;12.13;;;10.90;99.90;;;;;;5096736;28;20501;-79
2022/04/22 04:28:40;;;;;;;22.02;13.23;;;10.90;99.90;;;;;;5096794;28;20109;-81
2022/04/22 04:31:11;;;;;;;24.95;12.25;;;10.90;99.90;;;;;;5095009;28;20449;-79
2022/04/22 04:33:38;;;;;;;28.60;14.50;;;10.90;99.90;;;;;;5095076;28;20064;-80
2022/04/22 04:36:09;;;;;;;33.50;19.45;;;11.00;99.90;;;;;;5095004;28;20044;-80
2022/04/22 04:38:38;;;;;;;34.90;19.85;;;10.90;99.90;;;;;;5095019;28;20475;-77
2022/04/22 04:41:08;;;;;;;25.17;16.05;;;11.00;99.90;;;;;;5085633;28;20036;-75
2022/04/22 04:43:38;;;;;;;35.65;19.50;;;11.10;99.90;;;;;;5074729;28;20061;-77
2022/04/22 04:46:06;;;;;;;24.15;13.95;;;11.30;99.90;;;;;;5078160;28;20052;-79
2022/04/22 04:48:35;;;;;;;21.17;11.00;;;11.40;99.90;;;;;;5085782;28;20064;-80
2022/04/22 04:54:09;;;;;;;18.95;10.60;;;11.70;99.90;;;;;;5064652;22;20118;-78
2022/04/22 04:56:36;;;;;;;20.70;11.30;;;11.80;99.90;;;;;;5058189;28;20049;-77
2022/04/22 04:59:05;;;;;;;25.98;14.85;;;12.00;99.90;;;;;;5068253;28;20045;-77
2022/04/22 05:01:33;;;;;;;30.30;16.02;;;12.10;99.90;;;;;;5078596;28;20063;-79
2022/04/22 05:04:01;;;;;;;39.20;20.33;;;12.30;99.90;;;;;;5041804;28;20052;-78
2022/04/22 05:06:28;;;;;;;44.05;25.00;;;12.30;99.90;;;;;;5054729;28;20065;-82
2022/04/22 05:08:56;;;;;;;47.88;26.30;;;12.40;99.90;;;;;;5061141;28;20045;-80
2022/04/22 05:11:23;;;;;;;33.03;20.70;;;12.50;99.90;;;;;;5055805;28;20050;-79
2022/04/22 05:13:51;;;;;;;35.92;20.55;;;12.70;99.90;;;;;;5038932;28;20055;-79
2022/04/22 05:16:20;;;;;;;33.10;21.75;;;12.70;99.90;;;;;;5045834;28;20117;-80
2022/04/22 05:18:47;;;;;;;35.28;22.08;;;12.90;99.90;;;;;;5048134;28;20067;-81
2022/04/22 05:21:15;;;;;;;37.72;24.05;;;13.00;99.90;;;;;;5046655;28;20107;-80
2022/04/22 05:23:42;;;;;;;35.33;22.77;;;13.30;99.90;;;;;;5059446;28;20064;-79
2022/04/22 05:26:10;;;;;;;37.55;22.20;;;13.50;99.90;;;;;;5045172;28;20053;-80
2022/04/22 05:28:37;;;;;;;34.35;21.40;;;13.70;99.90;;;;;;5037473;28;20032;-80
2022/04/22 05:33:51;;;;;;;32.20;21.08;;;14.10;99.90;;;;;;5050261;28;20053;-79
2022/04/22 05:36:19;;;;;;;34.50;21.88;;;14.30;99.90;;;;;;5050075;28;20095;-83
2022/04/22 05:38:46;;;;;;;31.20;22.02;;;14.60;99.90;;;;;;5044602;28;20053;-83
2022/04/22 05:41:14;;;;;;;32.50;18.13;;;14.80;99.90;;;;;;5045038;28;20386;-82
2022/04/22 05:43:41;;;;;;;34.30;18.55;;;14.90;99.90;;;;;;5048676;28;20045;-83
2022/04/22 05:46:08;;;;;;;33.70;20.05;;;15.00;99.90;;;;;;5048929;28;20059;-83
2022/04/22 05:48:36;;;;;;;32.42;19.65;;;15.30;99.90;;;;;;5047550;28;20117;-83
2022/04/22 05:51:05;;;;;;;28.98;19.90;;;15.60;99.90;;;;;;5044265;28;20449;-81
2022/04/22 05:53:32;;;;;;;40.28;20.23;;;15.90;99.90;;;;;;5037913;28;20417;-82
2022/04/22 05:56:00;;;;;;;30.33;20.50;;;16.20;99.90;;;;;;5037105;28;20041;-81
2022/04/22 05:58:27;;;;;;;29.85;18.42;;;16.40;99.90;;;;;;5036650;28;20044;-81
2022/04/22 06:00:55;;;;;;;27.70;16.67;;;16.50;99.90;;;;;;5035288;28;20051;-79
2022/04/22 06:03:22;;;;;;;33.20;17.63;;;16.80;99.90;;;;;;5022474;28;20052;-80
2022/04/22 06:05:50;;;;;;;40.63;25.50;;;16.90;99.90;;;;;;5028440;28;20049;-77
2022/04/22 06:11:03;;;;;;;;;;;17.10;99.90;;;;;;5042086;28;20060;-78
2022/04/22 06:13:31;;;;;;;41.63;25.45;;;17.40;99.90;;;;;;5060620;28;19921;-80
2022/04/22 06:15:59;;;;;;;30.30;20.13;;;17.70;99.90;;;;;;5037527;28;20049;-78
2022/04/22 06:18:27;;;;;;;47.63;27.38;;;17.90;99.90;;;;;;5032737;28;20044;-78
2022/04/22 06:20:54;;;;;;;36.40;25.17;;;18.00;99.90;;;;;;5035774;28;20055;-77
2022/04/22 06:23:23;;;;;;;38.20;25.08;;;18.10;99.90;;;;;;5063830;28;20049;-78
2022/04/22 06:25:50;;;;;;;32.10;21.10;;;18.10;99.90;;;;;;5039893;28;20049;-78
2022/04/22 06:28:18;;;;;;;32.72;20.75;;;18.30;99.90;;;;;;5044417;28;20049;-79
2022/04/22 06:30:46;;;;;;;28.80;16.58;;;18.50;99.90;;;;;;5045939;28;20068;-77
2022/04/22 06:33:14;;;;;;;28.85;15.05;;;18.60;99.90;;;;;;5037227;28;20509;-79
2022/04/22 06:35:42;;;;;;;32.70;18.58;;;18.80;99.90;;;;;;5036110;28;20068;-79
2022/04/22 06:38:15;;;;;;;17.73;8.95;;;18.70;99.90;;;;;;5042867;28;20404;-78
2022/04/22 06:46:16;;;;;;;16.40;5.78;;;18.80;99.90;;;;;;5042705;28;20045;-79
2022/04/22 06:48:44;;;;;;;16.67;6.20;;;18.90;99.90;;;;;;5058150;28;20045;-78
2022/04/22 06:51:13;;;;;;;19.08;6.05;;;19.00;99.90;;;;;;5049288;28;20080;-79
2022/04/22 06:53:41;;;;;;;15.80;4.45;;;19.00;99.90;;;;;;5032085;28;20071;-78
2022/04/22 06:56:13;;;;;;;16.50;5.38;;;18.90;99.90;;;;;;5034037;28;20115;-79
2022/04/22 06:58:41;;;;;;;15.20;5.03;;;19.00;99.90;;;;;;5035926;28;20370;-78
2022/04/22 07:01:09;;;;;;;11.50;5.05;;;19.10;99.90;;;;;;5037946;28;20045;-78
2022/04/22 07:03:37;;;;;;;17.20;5.88;;;19.20;99.90;;;;;;5043947;28;20041;-77
2022/04/22 07:06:05;;;;;;;15.02;5.65;;;19.20;99.90;;;;;;5040678;28;20046;-79
2022/04/22 07:08:35;;;;;;;10.88;4.38;;;19.30;99.90;;;;;;5037788;28;20401;-78
2022/04/22 07:11:04;;;;;;;15.98;4.63;;;19.40;99.90;;;;;;5043455;28;20068;-77
2022/04/22 07:13:33;;;;;;;12.35;5.38;;;19.40;99.90;;;;;;5048317;28;20041;-78
2022/04/22 07:16:01;;;;;;;12.30;3.63;;;19.30;99.90;;;;;;5050024;28;20408;-77
2022/04/22 07:18:29;;;;;;;22.50;4.32;;;19.10;99.90;;;;;;5051451;28;20041;-78
2022/04/22 07:20:58;;;;;;;13.05;3.90;;;19.00;99.90;;;;;;5050263;28;20125;-79
2022/04/22 07:23:26;;;;;;;13.43;3.78;;;19.20;99.90;;;;;;5050733;28;20045;-77
2022/04/22 07:25:54;;;;;;;15.40;4.35;;;19.30;99.90;;;;;;5050868;28;20508;-78
2022/04/22 07:28:22;;;;;;;17.77;4.78;;;19.30;99.90;;;;;;5038863;28;20041;-78
2022/04/22 07:30:51;;;;;;;9.85;3.58;;;19.40;99.90;;;;;;5032562;28;20042;-77
2022/04/22 07:33:19;;;;;;;13.27;3.65;;;19.50;99.90;;;;;;5049692;28;20061;-76
2022/04/22 07:35:46;;;;;;;9.07;4.00;;;19.60;99.90;;;;;;5049761;28;20050;-77
2022/04/22 07:38:14;;;;;;;11.77;4.00;;;19.60;99.90;;;;;;5051049;28;20110;-78
2022/04/22 07:40:43;;;;;;;12.45;3.70;;;19.70;99.90;;;;;;5042628;28;20042;-77
2022/04/22 07:48:44;;;;;;;12.75;4.38;;;19.70;99.90;;;;;;5048142;28;20111;-78
2022/04/22 07:51:11;;;;;;;13.40;3.97;;;19.80;99.90;;;;;;5042126;28;20065;-78
2022/04/22 07:53:38;;;;;;;15.20;3.47;;;19.80;99.90;;;;;;5045307;28;20057;-80
2022/04/22 07:56:07;;;;;;;12.73;3.65;;;19.90;99.90;;;;;;5036875;28;20042;-79
2022/04/22 07:58:36;;;;;;;13.43;3.60;;;19.80;99.90;;;;;;5029190;28;20050;-79
2022/04/22 08:01:05;;;;;;;18.45;3.83;;;19.60;99.90;;;;;;5043058;28;20037;-80
2022/04/22 08:03:33;;;;;;;13.38;4.43;;;19.60;99.90;;;;;;5032166;28;20042;-81
2022/04/22 08:06:01;;;;;;;14.82;4.70;;;19.60;99.90;;;;;;5037623;28;20056;-81
2022/04/22 08:08:30;;;;;;;16.83;4.00;;;19.80;99.90;;;;;;5041864;28;20041;-81
2022/04/22 08:10:57;;;;;;;13.52;4.95;;;20.10;99.90;;;;;;5039398;28;20034;-81
2022/04/22 08:13:26;;;;;;;13.13;4.00;;;20.30;99.90;;;;;;5041201;28;20049;-77
2022/04/22 08:15:53;;;;;;;13.15;3.67;;;20.40;99.90;;;;;;5039709;28;20092;-82
2022/04/22 08:18:22;;;;;;;13.80;3.97;;;20.50;99.90;;;;;;5041764;28;20037;-79
2022/04/22 08:20:50;;;;;;;19.58;4.82;;;20.50;99.90;;;;;;5042569;28;20089;-79
2022/04/22 08:23:20;;;;;;;12.13;3.95;;;20.60;99.90;;;;;;5044035;28;20076;-81
2022/04/22 08:25:48;;;;;;;20.33;4.68;;;20.40;99.90;;;;;;5042857;28;20121;-80
2022/04/22 08:28:15;;;;;;;16.05;3.78;;;20.50;99.90;;;;;;5041319;28;20052;-80
2022/04/22 08:30:43;;;;;;;10.93;3.95;;;20.70;99.90;;;;;;5039758;28;20056;-80
2022/04/22 08:33:10;;;;;;;12.90;3.55;;;20.80;99.90;;;;;;5042222;28;20050;-79
2022/04/22 08:35:39;;;;;;;12.07;3.80;;;21.00;99.90;;;;;;5043883;28;20037;-80
2022/04/22 08:38:07;;;;;;;13.18;3.60;;;21.00;99.90;;;;;;5040779;28;20068;-81
2022/04/22 08:40:37;;;;;;;11.70;3.97;;;21.20;99.90;;;;;;5043537;28;20057;-79
2022/04/22 08:43:06;;;;;;;11.07;3.28;;;21.10;99.90;;;;;;5042052;28;20111;-79
2022/04/22 08:45:34;;;;;;;15.57;3.53;;;20.80;99.90;;;;;;5043432;28;20060;-79
2022/04/22 08:50:52;;;;;;;15.30;3.70;;;21.30;99.90;;;;;;5045834;28;20461;-80
2022/04/22 08:53:23;;;;;;;15.73;4.20;;;21.50;99.90;;;;;;5056779;28;20428;-80
2022/04/22 08:55:56;;;;;;;17.45;4.18;;;21.40;99.90;;;;;;5040901;28;20046;-82
2022/04/22 08:58:26;;;;;;;11.02;3.08;;;21.50;99.80;;;;;;5039195;28;20080;-81
2022/04/22 09:00:57;;;;;;;19.45;4.70;;;21.50;98.80;;;;;;5040707;28;20048;-81
2022/04/22 09:03:27;;;;;;;10.25;3.47;;;21.40;99.50;;;;;;5041445;28;20135;-81
2022/04/22 09:05:57;;;;;;;13.77;3.80;;;21.50;99.40;;;;;;5041384;28;20068;-81
2022/04/22 09:08:26;;;;;;;13.75;3.85;;;21.50;98.90;;;;;;5037151;28;20053;-79
2022/04/22 09:10:54;;;;;;;16.85;3.97;;;21.60;98.90;;;;;;5039606;28;20501;-79
2022/04/22 09:13:30;;;;;;;12.45;3.38;;;22.00;98.90;;;;;;5037309;28;20050;-79
2022/04/22 09:15:59;;;;;;;13.05;4.25;;;22.10;98.20;;;;;;5038046;28;20136;-80
2022/04/22 09:18:27;;;;;;;11.88;3.80;;;22.10;98.50;;;;;;5036234;28;20045;-80
2022/04/22 09:21:02;;;;;;;12.38;3.80;;;22.30;98.10;;;;;;5039668;28;20052;-81
2022/04/22 09:23:34;;;;;;;11.43;4.67;;;22.40;97.60;;;;;;5044008;28;20049;-79
2022/04/22 09:26:04;;;;;;;12.70;4.15;;;22.50;97.90;;;;;;5042679;28;20045;-81
2022/04/22 09:28:32;;;;;;;14.38;4.18;;;22.30;97.00;;;;;;5042176;28;20051;-81
2022/04/22 09:31:00;;;;;;;20.15;4.63;;;22.20;97.20;;;;;;5040344;28;20042;-81
2022/04/22 09:33:35;;;;;;;17.42;4.68;;;22.10;97.30;;;;;;5039082;28;20046;-77
2022/04/22 09:44:25;;;;;;;14.48;4.10;;;23.20;95.90;;;;;;5055126;28;20045;-77
2022/04/22 09:47:11;;;;;;;12.65;3.60;;;23.20;94.70;;;;;;5023395;28;20041;-77
2022/04/22 09:49:40;;;;;;;11.13;3.30;;;23.10;95.10;;;;;;5057402;28;20086;-76
2022/04/22 09:52:09;;;;;;;15.32;3.92;;;23.00;93.60;;;;;;5024229;28;20050;-76
2022/04/22 09:54:37;;;;;;;14.15;4.45;;;22.60;93.80;;;;;;5042237;28;20080;-76
2022/04/22 09:57:05;;;;;;;17.70;5.75;;;22.80;92.50;;;;;;5025577;28;20060;-76
2022/04/22 09:59:35;;;;;;;10.38;3.67;;;23.10;93.30;;;;;;5016912;28;20045;-77
2022/04/22 10:02:02;;;;;;;14.85;3.70;;;23.30;91.60;;;;;;5014724;28;20070;-77
2022/04/22 10:04:31;;;;;;;11.13;3.72;;;23.10;90.90;;;;;;5047720;28;20096;-76
2022/04/22 10:07:02;;;;;;;18.10;4.10;;;23.30;91.20;;;;;;5016896;28;20048;-77
2022/04/22 10:09:33;;;;;;;14.70;3.58;;;23.40;91.10;;;;;;5017250;28;20118;-76
2022/04/22 10:12:06;;;;;;;19.25;9.65;;;23.10;91.30;;;;;;5016760;28;20038;-78
2022/04/22 10:14:39;;;;;;;14.05;4.50;;;23.10;90.80;;;;;;5016337;28;20046;-78
2022/04/22 10:17:08;;;;;;;11.95;2.97;;;23.20;90.50;;;;;;5049896;28;20060;-78
2022/04/22 10:19:36;;;;;;;14.80;3.55;;;23.20;90.10;;;;;;5016788;28;20038;-78
2022/04/22 10:22:07;;;;;;;16.88;3.58;;;23.60;90.00;;;;;;5017966;28;20034;-76
2022/04/22 10:24:36;;;;;;;13.73;3.38;;;23.70;89.20;;;;;;5016199;28;20501;-78
2022/04/22 10:27:07;;;;;;;10.25;2.92;;;23.80;88.90;;;;;;5016200;28;20076;-76
2022/04/22 10:29:36;;;;;;;15.23;3.22;;;24.00;89.20;;;;;;5031357;28;20509;-77
2022/04/22 10:32:05;;;;;;;11.68;2.22;;;23.90;88.70;;;;;;5017267;28;20054;-77
2022/04/22 10:34:40;;;;;;;8.20;2.40;;;24.00;87.60;;;;;;5015530;28;20056;-77
2022/04/22 10:37:18;;;;;;;5.77;1.93;;;23.90;88.10;;;;;;5015009;28;20121;-76
2022/04/22 10:39:52;;;;;;;8.95;2.03;;;23.90;88.10;;;;;;5014715;28;20038;-75
2022/04/22 10:42:19;;;;;;;10.63;2.75;;;23.70;87.20;;;;;;5014555;28;20103;-76
2022/04/22 10:47:54;;;;;;;7.50;1.63;;;23.30;87.10;;;;;;5033950;28;20187;-76
2022/04/22 10:50:35;;;;;;;5.07;1.20;;;23.40;87.40;;;;;;5031111;28;20127;-75
2022/04/22 10:53:05;;;;;;;7.25;1.50;;;23.50;86.80;;;;;;5034914;28;20057;-76
2022/04/22 10:55:36;;;;;;;5.72;1.85;;;23.60;87.10;;;;;;5039433;28;20041;-76
2022/04/22 10:58:24;;;;;;;4.45;1.23;;;23.40;86.90;;;;;;5039326;28;20034;-77
2022/04/22 11:00:54;;;;;;;4.68;1.25;;;23.20;87.70;;;;;;5038991;28;20585;-77
2022/04/22 11:03:23;;;;;;;5.05;1.75;;;23.20;88.50;;;;;;5035491;28;20057;-76
2022/04/22 11:05:56;;;;;;;6.07;1.10;;;23.50;88.20;;;;;;5037770;28;20096;-77
2022/04/22 11:08:30;;;;;;;5.68;1.50;;;23.90;87.10;;;;;;5036730;28;20148;-77
2022/04/22 11:11:10;;;;;;;6.85;1.60;;;23.90;87.10;;;;;;5036227;28;20554;-78
2022/04/22 11:13:52;;;;;;;4.07;1.70;;;23.80;86.90;;;;;;5035231;28;20033;-77
2022/04/22 11:16:30;;;;;;;7.90;2.30;;;23.80;86.60;;;;;;5036205;28;20057;-79
2022/04/22 11:19:28;;;;;;;7.28;2.72;;;23.90;86.00;;;;;;5034779;28;20042;-76
2022/04/22 11:21:57;;;;;;;5.30;2.20;;;23.90;86.00;;;;;;5032124;28;20057;-76
2022/04/22 11:24:27;;;;;;;6.60;2.00;;;24.00;87.20;;;;;;5031188;28;20042;-75
2022/04/22 11:27:04;;;;;;;5.95;1.38;;;24.00;86.20;;;;;;5025270;28;20046;-76
2022/04/22 11:29:32;;;;;;;7.97;2.53;;;24.10;85.80;;;;;;5025951;28;20049;-76
2022/04/22 11:32:08;;;;;;;5.38;1.25;;;24.30;86.80;;;;;;5025842;28;20097;-77
2022/04/22 11:34:55;;;;;;;6.07;1.35;;;24.30;85.80;;;;;;5013727;28;20043;-76
2022/04/22 11:37:23;;;;;;;5.43;1.13;;;24.10;83.50;;;;;;5024757;28;20438;-76
2022/04/22 11:39:51;;;;;;;4.63;1.80;;;23.60;83.40;;;;;;5025078;28;20046;-76
2022/04/22 11:42:22;;;;;;;4.40;1.40;;;23.70;84.50;;;;;;5033376;28;20435;-74
2022/04/22 11:45:03;;;;;;;3.50;0.98;;;23.80;84.30;;;;;;5033333;28;20604;-76
2022/04/22 11:47:31;;;;;;;7.47;2.30;;;23.60;84.70;;;;;;5050939;28;20501;-77
2022/04/22 11:49:59;;;;;;;8.77;2.00;;;23.40;85.20;;;;;;5038504;28;20049;-78
2022/04/22 11:52:29;;;;;;;10.15;2.47;;;23.30;84.60;;;;;;5037716;28;20049;-78
2022/04/22 11:55:01;;;;;;;6.40;2.30;;;23.30;85.40;;;;;;5045683;28;20053;-80
2022/04/22 11:57:36;;;;;;;4.80;1.80;;;23.30;85.50;;;;;;5046078;28;20053;-79
2022/04/22 12:05:42;;;;;;;4.68;1.58;;;23.10;85.60;;;;;;5048746;28;20042;-76
2022/04/22 12:08:15;;;;;;;4.70;1.60;;;23.00;86.10;;;;;;5030660;28;20041;-76
2022/04/22 12:10:45;;;;;;;7.85;1.90;;;22.90;86.80;;;;;;5040206;28;20049;-75
2022/04/22 12:13:19;;;;;;;7.93;1.55;;;22.70;87.60;;;;;;5033627;28;20056;-76
2022/04/22 12:15:49;;;;;;;8.38;2.35;;;22.60;88.40;;;;;;5037091;28;20041;-75
2022/04/22 12:18:30;;;;;;;7.78;2.72;;;22.40;88.50;;;;;;5036334;28;20184;-77
2022/04/22 12:20:59;;;;;;;9.75;2.42;;;22.20;89.20;;;;;;5035654;28;20083;-76
2022/04/22 12:23:38;;;;;;;7.60;2.15;;;22.00;90.00;;;;;;5035135;28;20045;-76
2022/04/22 12:26:05;;;;;;;7.43;2.95;;;22.00;90.90;;;;;;5035339;28;20468;-74
2022/04/22 12:28:34;;;;;;;8.82;2.60;;;21.80;92.70;;;;;;5036934;28;20120;-77
2022/04/22 12:31:03;;;;;;;10.63;2.90;;;21.60;93.50;;;;;;5036743;28;20505;-78
2022/04/22 12:33:32;;;;;;;12.55;3.38;;;21.40;94.00;;;;;;5042038;28;20045;-78
2022/04/22 12:36:07;;;;;;;13.57;4.05;;;21.10;93.10;;;;;;5041385;28;20432;-78
2022/04/22 12:38:37;;;;;;;15.75;3.15;;;20.90;92.00;;;;;;5040961;28;20038;-78
2022/04/22 12:41:16;;;;;;;18.27;4.00;;;20.50;94.20;;;;;;5041360;28;20033;-78
2022/04/22 12:43:48;;;;;;;15.48;4.43;;;19.80;99.90;;;;;;5032286;28;20041;-77
2022/04/22 12:52:12;;;;;;;16.08;5.45;;;17.80;99.90;;;;;;5052652;28;20136;-79
2022/04/22 12:54:42;;;;;;;21.20;5.47;;;17.40;99.90;;;;;;5031016;28;20476;-79
2022/04/22 12:57:13;;;;;;;15.57;7.15;;;17.30;99.90;;;;;;5036595;28;20115;-79
2022/04/22 12:59:47;;;;;;;15.05;5.22;;;17.10;99.90;;;;;;5052576;28;20056;-79
2022/04/22 13:02:15;;;;;;;17.10;4.13;;;16.90;99.90;;;;;;5036850;28;20091;-82
2022/04/22 13:04:55;;;;;;;10.75;4.30;;;16.60;99.90;;;;;;5037591;28;20073;-80
2022/04/22 13:07:23;;;;;;;17.35;6.20;;;16.20;99.90;;;;;;5033778;28;20061;-78
2022/04/22 13:09:51;;;;;;;26.70;8.00;;;15.70;99.90;;;;;;5031153;28;20034;-78
2022/04/22 13:12:18;;;;;;;14.93;6.57;;;15.40;99.90;;;;;;5027368;28;20042;-79
2022/04/22 13:14:48;;;;;;;15.13;5.47;;;15.10;99.90;;;;;;5036158;28;20072;-78
2022/04/22 13:17:24;;;;;;;15.73;5.05;;;14.80;99.90;;;;;;5051590;28;20042;-77
2022/04/22 13:19:52;;;;;;;9.38;3.63;;;14.70;99.90;;;;;;5037451;28;20049;-80
2022/04/22 13:22:20;;;;;;;11.75;3.05;;;14.60;99.90;;;;;;5035763;28;20034;-76
2022/04/22 13:24:47;;;;;;;12.90;4.35;;;14.60;99.90;;;;;;5050458;28;20504;-77
2022/04/22 13:27:15;;;;;;;12.52;3.75;;;14.60;99.90;;;;;;5035303;28;20064;-76
2022/04/22 13:29:43;;;;;;;16.92;6.57;;;14.60;99.90;;;;;;5035084;28;20047;-77
2022/04/22 13:32:12;;;;;;;22.08;5.60;;;14.60;99.90;;;;;;5037821;28;20040;-80
2022/04/22 13:34:39;;;;;;;13.65;4.20;;;14.50;99.90;;;;;;5038553;28;20051;-78
2022/04/22 13:37:07;;;;;;;20.45;9.57;;;14.50;99.90;;;;;;5036764;28;20054;-79
2022/04/22 13:39:35;;;;;;;13.05;3.78;;;14.40;99.90;;;;;;5039531;28;20492;-77
2022/04/22 13:42:03;;;;;;;7.43;2.85;;;14.40;99.90;;;;;;5039381;28;20492;-78
2022/04/22 13:52:47;;;;;;;11.88;4.97;;;14.60;99.90;;;;;;5038512;28;20128;-79
2022/04/22 13:55:14;;;;;;;14.40;5.88;;;14.70;99.90;;;;;;5052146;28;20515;-79
2022/04/22 13:57:41;;;;;;;9.25;3.97;;;14.80;99.90;;;;;;5038544;28;20059;-80
2022/04/22 14:00:11;;;;;;;11.48;4.93;;;14.90;99.90;;;;;;5057350;28;20053;-80
2022/04/22 14:02:39;;;;;;;13.43;4.05;;;15.00;99.90;;;;;;5036226;28;20052;-78
2022/04/22 14:05:07;;;;;;;15.32;5.95;;;15.10;99.90;;;;;;5053378;28;20045;-79